Lincoln Thomas — WD12740 — position and weather

sailwx.info

Track history (hours):
 
Tides and Currents Weather Stations Pressure Air Temp Water Temp Dewpoint Dewpoint Depression Visibility Wind Speed Wind Dir Waves Ship Positions

Lincoln Thomas

Last reported at 2018-Feb-19 00:00 UTC. Time now 2018-Feb-19 00:06 UTC.
Position N 29°38' W 094°58'.

Length 20 m; draft 3 m.

Type: Towing. MMSI: 367812300.

Date/timePositionNaut miles runAvg speedWind from/ knotsBaromVisibWave heightAir tempDewpointWater temp
2018-Feb-19 00:00N 29°38' W 094°58'3 6.4
2018-Feb-18 23:30N 29°35' W 094°56'3 6.7
2018-Feb-18 23:00N 29°32' W 094°54'2 0.1
2018-Feb-17 18:41N 29°30' W 094°52'1 5.7
2018-Feb-17 18:30N 29°31' W 094°53'3 5.5
2018-Feb-17 18:00N 29°33' W 094°55'3 5.2
2018-Feb-17 17:30N 29°35' W 094°57'3 5.1
2018-Feb-17 17:00N 29°38' W 094°58'3 5.4
2018-Feb-17 16:30N 29°40' W 094°59'3 5.6
2018-Feb-17 16:00N 29°42' W 095°01'3 4.9
2018-Feb-17 15:23N 29°44' W 095°04'5 0.4
2018-Feb-17 01:21N 29°44' W 095°09'4 0.7
2018-Feb-16 19:50N 29°44' W 095°14'0 0.0
2018-Feb-16 19:29N 29°44' W 095°14'0 0.0
2018-Feb-16 18:59N 29°44' W 095°14'0 1.0
2018-Feb-16 18:30N 29°43' W 095°13'23 3.0
2018-Feb-16 10:43N 29°30' W 094°52'23 2.9
2018-Feb-16 02:53N 29°45' W 095°12'2 4.2
2018-Feb-16 02:28N 29°44' W 095°10'3 4.6
2018-Feb-16 01:45N 29°45' W 095°06'28 1.4
2018-Feb-15 06:09N 29°24' W 094°46'0 1.9
2018-Feb-15 05:55N 29°23' W 094°46'2 3.0
2018-Feb-15 05:15N 29°22' W 094°48'1 4.1
2018-Feb-15 04:56N 29°23' W 094°49'2 4.9
2018-Feb-15 04:30N 29°25' W 094°50'3 4.8
2018-Feb-15 03:57N 29°27' W 094°51'2 4.5
2018-Feb-15 03:25N 29°30' W 094°52'2 4.6
2018-Feb-15 03:00N 29°31' W 094°53'2 4.1
2018-Feb-15 02:27N 29°33' W 094°55'2 4.4
2018-Feb-15 01:58N 29°35' W 094°56'2 4.5
2018-Feb-15 01:30N 29°37' W 094°57'2 4.1
2018-Feb-15 01:00N 29°39' W 094°58'2 4.1
2018-Feb-15 00:28N 29°41' W 094°59'3 4.0
2018-Feb-14 23:48N 29°42' W 095°01'3 4.0
2018-Feb-14 23:06N 29°44' W 095°03'2 0.9
2018-Feb-14 20:41N 29°45' W 095°06'  
Track history (hours):
 
Tides and Currents Weather Stations Pressure Air Temp Water Temp Dewpoint Dewpoint Depression Visibility Wind Speed Wind Dir Waves Ship Positions

Lincoln Thomas

Last reported at 2018-Feb-19 00:00 UTC. Time now 2018-Feb-19 00:06 UTC.
Position N 29°38' W 094°58'.

Length 20 m; draft 3 m.

Type: Towing. MMSI: 367812300.

Date/timePositionNaut miles runAvg speedWind from/ knotsBaromVisibWave heightAir tempDewpointWater temp
2018-Feb-19 00:00N 29°38' W 094°58'3 6.4
2018-Feb-18 23:30N 29°35' W 094°56'3 6.7
2018-Feb-18 23:00N 29°32' W 094°54'2 0.1
2018-Feb-17 18:41N 29°30' W 094°52'1 5.7
2018-Feb-17 18:30N 29°31' W 094°53'3 5.5
2018-Feb-17 18:00N 29°33' W 094°55'3 5.2
2018-Feb-17 17:30N 29°35' W 094°57'3 5.1
2018-Feb-17 17:00N 29°38' W 094°58'3 5.4
2018-Feb-17 16:30N 29°40' W 094°59'3 5.6
2018-Feb-17 16:00N 29°42' W 095°01'3 4.9
2018-Feb-17 15:23N 29°44' W 095°04'5 0.4
2018-Feb-17 01:21N 29°44' W 095°09'4 0.7
2018-Feb-16 19:50N 29°44' W 095°14'0 0.0
2018-Feb-16 19:29N 29°44' W 095°14'0 0.0
2018-Feb-16 18:59N 29°44' W 095°14'0 1.0
2018-Feb-16 18:30N 29°43' W 095°13'23 3.0
2018-Feb-16 10:43N 29°30' W 094°52'23 2.9
2018-Feb-16 02:53N 29°45' W 095°12'2 4.2
2018-Feb-16 02:28N 29°44' W 095°10'3 4.6
2018-Feb-16 01:45N 29°45' W 095°06'28 1.4
2018-Feb-15 06:09N 29°24' W 094°46'0 1.9
2018-Feb-15 05:55N 29°23' W 094°46'2 3.0
2018-Feb-15 05:15N 29°22' W 094°48'1 4.1
2018-Feb-15 04:56N 29°23' W 094°49'2 4.9
2018-Feb-15 04:30N 29°25' W 094°50'3 4.8
2018-Feb-15 03:57N 29°27' W 094°51'2 4.5
2018-Feb-15 03:25N 29°30' W 094°52'2 4.6
2018-Feb-15 03:00N 29°31' W 094°53'2 4.1
2018-Feb-15 02:27N 29°33' W 094°55'2 4.4
2018-Feb-15 01:58N 29°35' W 094°56'2 4.5
2018-Feb-15 01:30N 29°37' W 094°57'2 4.1
2018-Feb-15 01:00N 29°39' W 094°58'2 4.1
2018-Feb-15 00:28N 29°41' W 094°59'3 4.0
2018-Feb-14 23:48N 29°42' W 095°01'3 4.0
2018-Feb-14 23:06N 29°44' W 095°03'2 0.9
2018-Feb-14 20:41N 29°45' W 095°06'  

Dump ship's entire track history